sensor_id;sensor_type;location;lat;lon;timestamp;temperature;humidity
34766;DHT22;20984;43.508;1.504;2024-01-30T00:00:40;10.30;99.90
34766;DHT22;20984;43.508;1.504;2024-01-30T00:03:06;10.30;99.90
34766;DHT22;20984;43.508;1.504;2024-01-30T00:05:31;10.30;99.90
34766;DHT22;20984;43.508;1.504;2024-01-30T00:07:57;10.30;99.90
34766;DHT22;20984;43.508;1.504;2024-01-30T00:10:22;10.30;99.90
34766;DHT22;20984;43.508;1.504;2024-01-30T00:12:48;10.30;99.90
34766;DHT22;20984;43.508;1.504;2024-01-30T00:15:13;10.40;99.90
34766;DHT22;20984;43.508;1.504;2024-01-30T00:17:39;10.40;99.90
34766;DHT22;20984;43.508;1.504;2024-01-30T00:20:04;10.30;99.90
34766;DHT22;20984;43.508;1.504;2024-01-30T00:22:31;10.40;99.90
34766;DHT22;20984;43.508;1.504;2024-01-30T00:24:57;10.40;99.90
34766;DHT22;20984;43.508;1.504;2024-01-30T00:27:22;10.40;99.90
34766;DHT22;20984;43.508;1.504;2024-01-30T00:29:48;10.30;99.90
34766;DHT22;20984;43.508;1.504;2024-01-30T00:32:13;10.30;99.90
34766;DHT22;20984;43.508;1.504;2024-01-30T00:34:39;10.30;99.90
34766;DHT22;20984;43.508;1.504;2024-01-30T00:37:04;10.30;99.90
34766;DHT22;20984;43.508;1.504;2024-01-30T00:39:30;10.30;99.90
34766;DHT22;20984;43.508;1.504;2024-01-30T00:41:55;10.40;99.90
34766;DHT22;20984;43.508;1.504;2024-01-30T00:44:21;10.30;99.90
34766;DHT22;20984;43.508;1.504;2024-01-30T00:46:46;10.30;99.90
34766;DHT22;20984;43.508;1.504;2024-01-30T00:49:12;10.30;99.90
34766;DHT22;20984;43.508;1.504;2024-01-30T00:51:38;10.30;99.90
34766;DHT22;20984;43.508;1.504;2024-01-30T00:54:03;10.30;99.90
34766;DHT22;20984;43.508;1.504;2024-01-30T00:56:29;10.30;99.90
34766;DHT22;20984;43.508;1.504;2024-01-30T00:58:55;10.20;99.90
34766;DHT22;20984;43.508;1.504;2024-01-30T01:01:21;10.30;99.90
34766;DHT22;20984;43.508;1.504;2024-01-30T01:03:46;10.30;99.90
34766;DHT22;20984;43.508;1.504;2024-01-30T01:06:13;10.30;99.90
34766;DHT22;20984;43.508;1.504;2024-01-30T01:08:39;10.30;99.90
34766;DHT22;20984;43.508;1.504;2024-01-30T01:11:05;10.30;99.90
34766;DHT22;20984;43.508;1.504;2024-01-30T01:13:30;10.20;99.90
34766;DHT22;20984;43.508;1.504;2024-01-30T01:15:56;10.20;99.90
34766;DHT22;20984;43.508;1.504;2024-01-30T01:18:21;10.20;99.90
34766;DHT22;20984;43.508;1.504;2024-01-30T01:20:47;10.20;99.90
34766;DHT22;20984;43.508;1.504;2024-01-30T01:23:15;10.20;99.90
34766;DHT22;20984;43.508;1.504;2024-01-30T01:25:41;10.20;99.90
34766;DHT22;20984;43.508;1.504;2024-01-30T01:28:06;10.30;99.90
34766;DHT22;20984;43.508;1.504;2024-01-30T01:30:32;10.20;99.90
34766;DHT22;20984;43.508;1.504;2024-01-30T01:32:58;10.20;99.90
34766;DHT22;20984;43.508;1.504;2024-01-30T01:35:26;10.20;99.90
34766;DHT22;20984;43.508;1.504;2024-01-30T01:37:52;10.20;99.90
34766;DHT22;20984;43.508;1.504;2024-01-30T01:40:23;10.20;99.90
34766;DHT22;20984;43.508;1.504;2024-01-30T01:42:52;10.20;99.90
34766;DHT22;20984;43.508;1.504;2024-01-30T01:45:21;10.20;99.90
34766;DHT22;20984;43.508;1.504;2024-01-30T01:47:52;10.20;99.90
34766;DHT22;20984;43.508;1.504;2024-01-30T01:50:18;10.20;99.90
34766;DHT22;20984;43.508;1.504;2024-01-30T01:52:44;10.30;99.90
34766;DHT22;20984;43.508;1.504;2024-01-30T01:55:12;10.40;99.90
34766;DHT22;20984;43.508;1.504;2024-01-30T01:57:38;10.40;99.90
34766;DHT22;20984;43.508;1.504;2024-01-30T02:00:04;10.50;99.90
34766;DHT22;20984;43.508;1.504;2024-01-30T02:02:30;10.50;99.90
34766;DHT22;20984;43.508;1.504;2024-01-30T02:04:57;10.50;99.90
34766;DHT22;20984;43.508;1.504;2024-01-30T02:07:22;10.50;99.90
34766;DHT22;20984;43.508;1.504;2024-01-30T02:09:48;10.50;99.90
34766;DHT22;20984;43.508;1.504;2024-01-30T02:12:13;10.50;99.90
34766;DHT22;20984;43.508;1.504;2024-01-30T02:14:45;10.50;99.90
34766;DHT22;20984;43.508;1.504;2024-01-30T02:17:11;10.40;99.90
34766;DHT22;20984;43.508;1.504;2024-01-30T02:19:37;10.40;99.90
34766;DHT22;20984;43.508;1.504;2024-01-30T02:22:03;10.40;99.90
34766;DHT22;20984;43.508;1.504;2024-01-30T02:24:28;10.40;99.90
34766;DHT22;20984;43.508;1.504;2024-01-30T02:26:54;10.50;99.90
34766;DHT22;20984;43.508;1.504;2024-01-30T02:29:19;10.50;99.90
34766;DHT22;20984;43.508;1.504;2024-01-30T02:31:45;10.60;99.90
34766;DHT22;20984;43.508;1.504;2024-01-30T02:34:11;10.60;99.90
34766;DHT22;20984;43.508;1.504;2024-01-30T02:36:36;10.60;99.90
34766;DHT22;20984;43.508;1.504;2024-01-30T02:39:02;10.60;99.90
34766;DHT22;20984;43.508;1.504;2024-01-30T02:41:28;10.60;99.90
34766;DHT22;20984;43.508;1.504;2024-01-30T02:43:53;10.60;99.90
34766;DHT22;20984;43.508;1.504;2024-01-30T02:46:19;10.60;99.90
34766;DHT22;20984;43.508;1.504;2024-01-30T02:48:44;10.60;99.90
34766;DHT22;20984;43.508;1.504;2024-01-30T02:51:10;10.60;99.90
34766;DHT22;20984;43.508;1.504;2024-01-30T02:53:35;10.60;99.90
34766;DHT22;20984;43.508;1.504;2024-01-30T02:56:02;10.70;99.90
34766;DHT22;20984;43.508;1.504;2024-01-30T02:58:27;10.70;99.90
34766;DHT22;20984;43.508;1.504;2024-01-30T03:00:53;10.60;99.90
34766;DHT22;20984;43.508;1.504;2024-01-30T03:03:18;10.60;99.90
34766;DHT22;20984;43.508;1.504;2024-01-30T03:05:44;10.70;99.90
34766;DHT22;20984;43.508;1.504;2024-01-30T03:08:09;10.60;99.90
34766;DHT22;20984;43.508;1.504;2024-01-30T03:10:35;10.70;99.90
34766;DHT22;20984;43.508;1.504;2024-01-30T03:13:00;10.70;99.90
34766;DHT22;20984;43.508;1.504;2024-01-30T03:15:26;10.70;99.90
34766;DHT22;20984;43.508;1.504;2024-01-30T03:17:53;10.70;99.90
34766;DHT22;20984;43.508;1.504;2024-01-30T03:20:18;10.80;99.90
34766;DHT22;20984;43.508;1.504;2024-01-30T03:22:44;10.80;99.90
34766;DHT22;20984;43.508;1.504;2024-01-30T03:25:09;10.80;99.90
34766;DHT22;20984;43.508;1.504;2024-01-30T03:27:35;10.80;99.90
34766;DHT22;20984;43.508;1.504;2024-01-30T03:30:00;10.80;99.90
34766;DHT22;20984;43.508;1.504;2024-01-30T03:32:26;10.80;99.90
34766;DHT22;20984;43.508;1.504;2024-01-30T03:34:51;10.70;99.90
34766;DHT22;20984;43.508;1.504;2024-01-30T03:37:17;10.70;99.90
34766;DHT22;20984;43.508;1.504;2024-01-30T03:39:42;10.70;99.90
34766;DHT22;20984;43.508;1.504;2024-01-30T03:42:08;10.70;99.90
34766;DHT22;20984;43.508;1.504;2024-01-30T03:44:33;10.60;99.90
34766;DHT22;20984;43.508;1.504;2024-01-30T03:46:59;10.70;99.90
34766;DHT22;20984;43.508;1.504;2024-01-30T03:49:24;10.70;99.90
34766;DHT22;20984;43.508;1.504;2024-01-30T03:51:50;10.70;99.90
34766;DHT22;20984;43.508;1.504;2024-01-30T03:54:15;10.70;99.90
34766;DHT22;20984;43.508;1.504;2024-01-30T03:56:41;10.70;99.90
34766;DHT22;20984;43.508;1.504;2024-01-30T03:59:07;10.70;99.90
34766;DHT22;20984;43.508;1.504;2024-01-30T04:01:32;10.60;99.90
34766;DHT22;20984;43.508;1.504;2024-01-30T04:03:58;10.60;99.90
34766;DHT22;20984;43.508;1.504;2024-01-30T04:06:24;10.60;99.90
34766;DHT22;20984;43.508;1.504;2024-01-30T04:08:49;10.50;99.90
34766;DHT22;20984;43.508;1.504;2024-01-30T04:11:15;10.50;99.90
34766;DHT22;20984;43.508;1.504;2024-01-30T04:13:43;10.50;99.90
34766;DHT22;20984;43.508;1.504;2024-01-30T04:16:18;10.50;99.90
34766;DHT22;20984;43.508;1.504;2024-01-30T04:18:44;10.50;99.90
34766;DHT22;20984;43.508;1.504;2024-01-30T04:21:09;10.40;99.90
34766;DHT22;20984;43.508;1.504;2024-01-30T04:23:35;10.40;99.90
34766;DHT22;20984;43.508;1.504;2024-01-30T04:26:00;10.40;99.90
34766;DHT22;20984;43.508;1.504;2024-01-30T04:28:26;10.40;99.90
34766;DHT22;20984;43.508;1.504;2024-01-30T04:30:51;10.30;99.90
34766;DHT22;20984;43.508;1.504;2024-01-30T04:33:17;10.20;99.90
34766;DHT22;20984;43.508;1.504;2024-01-30T04:35:43;10.20;99.90
34766;DHT22;20984;43.508;1.504;2024-01-30T04:38:09;10.20;99.90
34766;DHT22;20984;43.508;1.504;2024-01-30T04:40:34;10.10;99.90
34766;DHT22;20984;43.508;1.504;2024-01-30T04:43:00;10.10;99.90
34766;DHT22;20984;43.508;1.504;2024-01-30T04:45:25;10.10;99.90
34766;DHT22;20984;43.508;1.504;2024-01-30T04:47:51;10.10;99.90
34766;DHT22;20984;43.508;1.504;2024-01-30T04:50:16;10.10;99.90
34766;DHT22;20984;43.508;1.504;2024-01-30T04:52:42;10.00;99.90
34766;DHT22;20984;43.508;1.504;2024-01-30T04:55:07;10.10;99.90
34766;DHT22;20984;43.508;1.504;2024-01-30T04:57:33;10.00;99.90
34766;DHT22;20984;43.508;1.504;2024-01-30T04:59:59;10.10;99.90
34766;DHT22;20984;43.508;1.504;2024-01-30T05:02:24;10.10;99.90
34766;DHT22;20984;43.508;1.504;2024-01-30T05:04:50;10.10;99.90
34766;DHT22;20984;43.508;1.504;2024-01-30T05:07:15;10.10;99.90
34766;DHT22;20984;43.508;1.504;2024-01-30T05:09:41;10.20;99.90
34766;DHT22;20984;43.508;1.504;2024-01-30T05:12:07;10.20;99.90
34766;DHT22;20984;43.508;1.504;2024-01-30T05:14:32;10.30;99.90
34766;DHT22;20984;43.508;1.504;2024-01-30T05:16:58;10.30;99.90
34766;DHT22;20984;43.508;1.504;2024-01-30T05:19:23;10.40;99.90
34766;DHT22;20984;43.508;1.504;2024-01-30T05:21:49;10.50;99.90
34766;DHT22;20984;43.508;1.504;2024-01-30T05:24:14;10.50;99.90
34766;DHT22;20984;43.508;1.504;2024-01-30T05:26:40;10.50;99.90
34766;DHT22;20984;43.508;1.504;2024-01-30T05:29:06;10.50;99.90
34766;DHT22;20984;43.508;1.504;2024-01-30T05:31:31;10.60;99.90
34766;DHT22;20984;43.508;1.504;2024-01-30T05:33:57;10.60;99.90
34766;DHT22;20984;43.508;1.504;2024-01-30T05:36:22;10.70;99.90
34766;DHT22;20984;43.508;1.504;2024-01-30T05:38:48;10.70;99.90
34766;DHT22;20984;43.508;1.504;2024-01-30T05:41:13;10.80;99.90
34766;DHT22;20984;43.508;1.504;2024-01-30T05:43:39;10.80;99.90
34766;DHT22;20984;43.508;1.504;2024-01-30T05:46:04;10.80;99.90
34766;DHT22;20984;43.508;1.504;2024-01-30T05:48:31;10.80;99.90
34766;DHT22;20984;43.508;1.504;2024-01-30T05:50:56;10.80;99.90
34766;DHT22;20984;43.508;1.504;2024-01-30T05:53:22;10.80;99.90
34766;DHT22;20984;43.508;1.504;2024-01-30T05:55:48;10.80;99.90
34766;DHT22;20984;43.508;1.504;2024-01-30T05:58:13;10.70;99.90
34766;DHT22;20984;43.508;1.504;2024-01-30T06:00:39;10.70;99.90
34766;DHT22;20984;43.508;1.504;2024-01-30T06:03:04;10.70;99.90
34766;DHT22;20984;43.508;1.504;2024-01-30T06:05:30;10.60;99.90
34766;DHT22;20984;43.508;1.504;2024-01-30T06:07:55;10.60;99.90
34766;DHT22;20984;43.508;1.504;2024-01-30T06:10:21;10.60;99.90
34766;DHT22;20984;43.508;1.504;2024-01-30T06:12:46;10.60;99.90
34766;DHT22;20984;43.508;1.504;2024-01-30T06:15:13;10.60;99.90
34766;DHT22;20984;43.508;1.504;2024-01-30T06:17:39;10.60;99.90
34766;DHT22;20984;43.508;1.504;2024-01-30T06:20:04;10.50;99.90
34766;DHT22;20984;43.508;1.504;2024-01-30T06:22:30;10.50;99.90
34766;DHT22;20984;43.508;1.504;2024-01-30T06:24:56;10.40;99.90
34766;DHT22;20984;43.508;1.504;2024-01-30T06:27:21;10.40;99.90
34766;DHT22;20984;43.508;1.504;2024-01-30T06:29:47;10.30;99.90
34766;DHT22;20984;43.508;1.504;2024-01-30T06:32:12;10.30;99.90
34766;DHT22;20984;43.508;1.504;2024-01-30T06:34:38;10.30;99.90
34766;DHT22;20984;43.508;1.504;2024-01-30T06:37:05;10.30;99.90
34766;DHT22;20984;43.508;1.504;2024-01-30T06:39:30;10.40;99.90
34766;DHT22;20984;43.508;1.504;2024-01-30T06:41:56;10.40;99.90
34766;DHT22;20984;43.508;1.504;2024-01-30T06:44:21;10.40;99.90
34766;DHT22;20984;43.508;1.504;2024-01-30T06:46:47;10.50;99.90
34766;DHT22;20984;43.508;1.504;2024-01-30T06:49:13;10.50;99.90
34766;DHT22;20984;43.508;1.504;2024-01-30T06:51:38;10.50;99.90
34766;DHT22;20984;43.508;1.504;2024-01-30T06:54:04;10.60;99.90
34766;DHT22;20984;43.508;1.504;2024-01-30T06:56:29;10.60;99.90
34766;DHT22;20984;43.508;1.504;2024-01-30T06:58:55;10.60;99.90
34766;DHT22;20984;43.508;1.504;2024-01-30T07:01:20;10.70;99.90
34766;DHT22;20984;43.508;1.504;2024-01-30T07:03:46;10.70;99.90
34766;DHT22;20984;43.508;1.504;2024-01-30T07:06:12;10.70;99.90
34766;DHT22;20984;43.508;1.504;2024-01-30T07:08:37;10.70;99.90
34766;DHT22;20984;43.508;1.504;2024-01-30T07:11:07;10.70;99.90
34766;DHT22;20984;43.508;1.504;2024-01-30T07:13:34;10.80;99.90
34766;DHT22;20984;43.508;1.504;2024-01-30T07:15:59;10.80;99.90
34766;DHT22;20984;43.508;1.504;2024-01-30T07:18:25;10.80;99.90
34766;DHT22;20984;43.508;1.504;2024-01-30T07:20:50;10.80;99.90
34766;DHT22;20984;43.508;1.504;2024-01-30T07:23:16;10.80;99.90
34766;DHT22;20984;43.508;1.504;2024-01-30T07:25:46;10.80;99.90
34766;DHT22;20984;43.508;1.504;2024-01-30T07:28:14;10.80;99.90
34766;DHT22;20984;43.508;1.504;2024-01-30T07:30:42;10.80;99.90
34766;DHT22;20984;43.508;1.504;2024-01-30T07:33:07;10.80;99.90
34766;DHT22;20984;43.508;1.504;2024-01-30T07:35:34;10.80;99.90
34766;DHT22;20984;43.508;1.504;2024-01-30T07:37:59;10.90;99.90
34766;DHT22;20984;43.508;1.504;2024-01-30T07:40:25;10.90;99.90
34766;DHT22;20984;43.508;1.504;2024-01-30T07:42:53;11.00;99.90
34766;DHT22;20984;43.508;1.504;2024-01-30T07:45:19;11.00;99.90
34766;DHT22;20984;43.508;1.504;2024-01-30T07:47:51;11.00;99.90
34766;DHT22;20984;43.508;1.504;2024-01-30T07:50:16;11.00;99.90
34766;DHT22;20984;43.508;1.504;2024-01-30T07:52:42;11.10;99.90
34766;DHT22;20984;43.508;1.504;2024-01-30T07:55:08;11.10;99.90
34766;DHT22;20984;43.508;1.504;2024-01-30T07:57:33;11.10;99.90
34766;DHT22;20984;43.508;1.504;2024-01-30T08:00:00;11.10;99.90
34766;DHT22;20984;43.508;1.504;2024-01-30T08:02:25;11.10;99.90
34766;DHT22;20984;43.508;1.504;2024-01-30T08:04:51;11.20;99.90
34766;DHT22;20984;43.508;1.504;2024-01-30T08:07:16;11.20;99.90
34766;DHT22;20984;43.508;1.504;2024-01-30T08:09:43;11.20;99.90
34766;DHT22;20984;43.508;1.504;2024-01-30T08:12:08;11.30;99.90
34766;DHT22;20984;43.508;1.504;2024-01-30T08:14:34;11.40;99.90
34766;DHT22;20984;43.508;1.504;2024-01-30T08:16:59;11.40;99.90
34766;DHT22;20984;43.508;1.504;2024-01-30T08:19:25;11.40;99.90
34766;DHT22;20984;43.508;1.504;2024-01-30T08:21:50;11.50;99.90
34766;DHT22;20984;43.508;1.504;2024-01-30T08:24:16;11.60;99.90
34766;DHT22;20984;43.508;1.504;2024-01-30T08:26:41;11.70;99.90
34766;DHT22;20984;43.508;1.504;2024-01-30T08:29:07;11.80;99.90
34766;DHT22;20984;43.508;1.504;2024-01-30T08:31:33;11.80;99.90
34766;DHT22;20984;43.508;1.504;2024-01-30T08:33:58;11.80;99.90
34766;DHT22;20984;43.508;1.504;2024-01-30T08:36:24;11.90;99.90
34766;DHT22;20984;43.508;1.504;2024-01-30T08:38:50;11.90;99.90
34766;DHT22;20984;43.508;1.504;2024-01-30T08:41:16;11.90;99.90
34766;DHT22;20984;43.508;1.504;2024-01-30T08:43:41;12.00;99.90
34766;DHT22;20984;43.508;1.504;2024-01-30T08:46:07;12.00;99.90
34766;DHT22;20984;43.508;1.504;2024-01-30T08:48:32;12.00;99.90
34766;DHT22;20984;43.508;1.504;2024-01-30T08:50:58;12.10;99.90
34766;DHT22;20984;43.508;1.504;2024-01-30T08:53:23;12.10;99.90
34766;DHT22;20984;43.508;1.504;2024-01-30T08:55:49;12.20;99.90
34766;DHT22;20984;43.508;1.504;2024-01-30T08:58:15;12.20;99.90
34766;DHT22;20984;43.508;1.504;2024-01-30T09:00:43;12.20;99.90
34766;DHT22;20984;43.508;1.504;2024-01-30T09:03:09;12.30;99.90
34766;DHT22;20984;43.508;1.504;2024-01-30T09:05:34;12.40;99.90
34766;DHT22;20984;43.508;1.504;2024-01-30T09:08:00;12.50;99.90
34766;DHT22;20984;43.508;1.504;2024-01-30T09:10:25;12.60;99.90
34766;DHT22;20984;43.508;1.504;2024-01-30T09:12:52;12.70;99.90
34766;DHT22;20984;43.508;1.504;2024-01-30T09:15:17;12.80;99.90
34766;DHT22;20984;43.508;1.504;2024-01-30T09:17:44;12.80;99.90
34766;DHT22;20984;43.508;1.504;2024-01-30T09:20:09;13.00;99.90
34766;DHT22;20984;43.508;1.504;2024-01-30T09:22:35;13.00;99.90
34766;DHT22;20984;43.508;1.504;2024-01-30T09:25:01;13.00;99.90
34766;DHT22;20984;43.508;1.504;2024-01-30T09:27:26;13.00;99.90
34766;DHT22;20984;43.508;1.504;2024-01-30T09:29:52;12.90;99.90
34766;DHT22;20984;43.508;1.504;2024-01-30T09:32:17;12.90;99.90
34766;DHT22;20984;43.508;1.504;2024-01-30T09:34:43;12.90;99.90
34766;DHT22;20984;43.508;1.504;2024-01-30T09:37:09;12.90;99.90
34766;DHT22;20984;43.508;1.504;2024-01-30T09:39:35;12.80;99.90
34766;DHT22;20984;43.508;1.504;2024-01-30T09:44:32;12.70;99.90
34766;DHT22;20984;43.508;1.504;2024-01-30T09:47:00;12.80;99.90
34766;DHT22;20984;43.508;1.504;2024-01-30T09:49:30;12.80;99.90
34766;DHT22;20984;43.508;1.504;2024-01-30T09:51:56;12.80;99.90
34766;DHT22;20984;43.508;1.504;2024-01-30T09:54:22;12.90;99.90
34766;DHT22;20984;43.508;1.504;2024-01-30T09:56:48;12.90;99.90
34766;DHT22;20984;43.508;1.504;2024-01-30T09:59:14;12.90;99.90
34766;DHT22;20984;43.508;1.504;2024-01-30T10:01:42;13.00;99.90
34766;DHT22;20984;43.508;1.504;2024-01-30T10:04:08;13.00;99.90
34766;DHT22;20984;43.508;1.504;2024-01-30T10:06:34;13.10;99.90
34766;DHT22;20984;43.508;1.504;2024-01-30T10:08:59;13.10;99.90
34766;DHT22;20984;43.508;1.504;2024-01-30T10:11:25;13.20;99.90
34766;DHT22;20984;43.508;1.504;2024-01-30T10:13:50;13.20;99.90
34766;DHT22;20984;43.508;1.504;2024-01-30T10:16:16;13.20;99.90
34766;DHT22;20984;43.508;1.504;2024-01-30T10:18:42;13.30;99.90
34766;DHT22;20984;43.508;1.504;2024-01-30T10:21:08;13.30;99.90
34766;DHT22;20984;43.508;1.504;2024-01-30T10:23:34;13.30;99.90
34766;DHT22;20984;43.508;1.504;2024-01-30T10:25:59;13.20;99.90
34766;DHT22;20984;43.508;1.504;2024-01-30T10:28:27;13.20;99.90
34766;DHT22;20984;43.508;1.504;2024-01-30T10:31:00;13.20;99.90
34766;DHT22;20984;43.508;1.504;2024-01-30T10:33:28;13.20;99.90
34766;DHT22;20984;43.508;1.504;2024-01-30T10:35:55;13.10;99.90
34766;DHT22;20984;43.508;1.504;2024-01-30T10:38:23;13.20;99.90
34766;DHT22;20984;43.508;1.504;2024-01-30T10:40:50;13.20;99.90
34766;DHT22;20984;43.508;1.504;2024-01-30T10:43:18;13.30;99.90
34766;DHT22;20984;43.508;1.504;2024-01-30T10:45:47;13.30;99.90
34766;DHT22;20984;43.508;1.504;2024-01-30T10:48:14;13.30;99.90
34766;DHT22;20984;43.508;1.504;2024-01-30T10:50:42;13.30;99.90
34766;DHT22;20984;43.508;1.504;2024-01-30T10:53:08;13.30;99.90
34766;DHT22;20984;43.508;1.504;2024-01-30T10:55:34;13.30;99.90
34766;DHT22;20984;43.508;1.504;2024-01-30T10:58:00;13.30;99.90
34766;DHT22;20984;43.508;1.504;2024-01-30T11:00:26;13.20;99.90
34766;DHT22;20984;43.508;1.504;2024-01-30T11:02:52;13.20;99.90
34766;DHT22;20984;43.508;1.504;2024-01-30T11:05:24;13.20;99.90
34766;DHT22;20984;43.508;1.504;2024-01-30T11:07:52;13.10;99.90
34766;DHT22;20984;43.508;1.504;2024-01-30T11:10:18;13.10;99.90
34766;DHT22;20984;43.508;1.504;2024-01-30T11:12:45;13.10;99.90
34766;DHT22;20984;43.508;1.504;2024-01-30T11:15:18;13.20;99.90
34766;DHT22;20984;43.508;1.504;2024-01-30T11:20:10;13.40;99.90
34766;DHT22;20984;43.508;1.504;2024-01-30T11:22:37;13.40;99.90
34766;DHT22;20984;43.508;1.504;2024-01-30T11:25:02;13.40;99.90
34766;DHT22;20984;43.508;1.504;2024-01-30T11:27:29;13.40;99.90
34766;DHT22;20984;43.508;1.504;2024-01-30T11:30:00;13.50;99.90
34766;DHT22;20984;43.508;1.504;2024-01-30T11:32:26;13.50;99.90
34766;DHT22;20984;43.508;1.504;2024-01-30T11:34:52;13.50;99.90
34766;DHT22;20984;43.508;1.504;2024-01-30T11:37:18;13.60;99.90
34766;DHT22;20984;43.508;1.504;2024-01-30T11:39:45;13.60;99.90
34766;DHT22;20984;43.508;1.504;2024-01-30T11:42:11;13.70;99.90
34766;DHT22;20984;43.508;1.504;2024-01-30T11:44:37;13.80;99.90
34766;DHT22;20984;43.508;1.504;2024-01-30T11:47:02;13.80;99.90
34766;DHT22;20984;43.508;1.504;2024-01-30T11:49:28;14.00;99.90
34766;DHT22;20984;43.508;1.504;2024-01-30T11:51:54;14.00;99.90
34766;DHT22;20984;43.508;1.504;2024-01-30T11:54:19;14.00;99.90
34766;DHT22;20984;43.508;1.504;2024-01-30T11:56:45;14.00;99.90
34766;DHT22;20984;43.508;1.504;2024-01-30T11:59:11;14.00;99.90
34766;DHT22;20984;43.508;1.504;2024-01-30T12:01:36;14.00;99.90
34766;DHT22;20984;43.508;1.504;2024-01-30T12:04:02;14.00;99.90
34766;DHT22;20984;43.508;1.504;2024-01-30T12:06:28;14.10;99.90
34766;DHT22;20984;43.508;1.504;2024-01-30T12:08:57;14.10;99.90
34766;DHT22;20984;43.508;1.504;2024-01-30T12:11:23;14.10;99.90
34766;DHT22;20984;43.508;1.504;2024-01-30T12:13:49;14.10;99.90
34766;DHT22;20984;43.508;1.504;2024-01-30T12:16:16;14.00;99.90
34766;DHT22;20984;43.508;1.504;2024-01-30T12:18:41;14.00;99.90
34766;DHT22;20984;43.508;1.504;2024-01-30T12:21:07;14.10;99.90
34766;DHT22;20984;43.508;1.504;2024-01-30T12:23:34;14.10;99.90
34766;DHT22;20984;43.508;1.504;2024-01-30T12:26:00;14.10;99.90
34766;DHT22;20984;43.508;1.504;2024-01-30T12:28:26;14.20;99.90
34766;DHT22;20984;43.508;1.504;2024-01-30T12:30:55;14.20;99.90
34766;DHT22;20984;43.508;1.504;2024-01-30T12:33:21;14.20;99.90
34766;DHT22;20984;43.508;1.504;2024-01-30T12:35:47;14.20;99.90
34766;DHT22;20984;43.508;1.504;2024-01-30T12:38:13;14.30;99.90
34766;DHT22;20984;43.508;1.504;2024-01-30T12:40:39;14.30;99.90
34766;DHT22;20984;43.508;1.504;2024-01-30T12:43:05;14.30;99.90
34766;DHT22;20984;43.508;1.504;2024-01-30T12:45:30;14.30;99.90
34766;DHT22;20984;43.508;1.504;2024-01-30T12:47:56;14.30;99.90
34766;DHT22;20984;43.508;1.504;2024-01-30T12:50:21;14.20;99.90
34766;DHT22;20984;43.508;1.504;2024-01-30T12:52:47;14.30;99.90
34766;DHT22;20984;43.508;1.504;2024-01-30T12:55:13;14.30;99.90
34766;DHT22;20984;43.508;1.504;2024-01-30T12:57:39;14.30;99.90
34766;DHT22;20984;43.508;1.504;2024-01-30T13:00:05;14.30;99.90
34766;DHT22;20984;43.508;1.504;2024-01-30T13:02:33;14.30;99.90
34766;DHT22;20984;43.508;1.504;2024-01-30T13:05:05;14.40;99.90
34766;DHT22;20984;43.508;1.504;2024-01-30T13:07:31;14.30;99.90
34766;DHT22;20984;43.508;1.504;2024-01-30T13:09:56;14.30;99.90
34766;DHT22;20984;43.508;1.504;2024-01-30T13:12:27;14.40;99.90
34766;DHT22;20984;43.508;1.504;2024-01-30T13:14:53;14.40;99.90
34766;DHT22;20984;43.508;1.504;2024-01-30T13:17:19;14.40;99.90
34766;DHT22;20984;43.508;1.504;2024-01-30T13:19:44;14.30;99.90
34766;DHT22;20984;43.508;1.504;2024-01-30T13:22:10;14.30;99.90
34766;DHT22;20984;43.508;1.504;2024-01-30T13:24:35;14.30;99.90
34766;DHT22;20984;43.508;1.504;2024-01-30T13:27:01;14.30;99.90
34766;DHT22;20984;43.508;1.504;2024-01-30T13:29:26;14.30;99.90
34766;DHT22;20984;43.508;1.504;2024-01-30T13:31:52;14.30;99.90
34766;DHT22;20984;43.508;1.504;2024-01-30T13:34:18;14.30;99.90
34766;DHT22;20984;43.508;1.504;2024-01-30T13:36:43;14.30;99.90
34766;DHT22;20984;43.508;1.504;2024-01-30T13:39:10;14.30;99.90
34766;DHT22;20984;43.508;1.504;2024-01-30T13:41:37;14.30;99.90
34766;DHT22;20984;43.508;1.504;2024-01-30T13:44:03;14.30;99.90
34766;DHT22;20984;43.508;1.504;2024-01-30T13:46:29;14.30;99.90
34766;DHT22;20984;43.508;1.504;2024-01-30T13:48:55;14.30;99.90
34766;DHT22;20984;43.508;1.504;2024-01-30T13:51:20;14.40;99.90
34766;DHT22;20984;43.508;1.504;2024-01-30T13:53:46;14.50;99.90
34766;DHT22;20984;43.508;1.504;2024-01-30T13:56:11;14.50;99.90
34766;DHT22;20984;43.508;1.504;2024-01-30T13:58:37;14.40;99.90
34766;DHT22;20984;43.508;1.504;2024-01-30T14:01:02;14.40;99.90
34766;DHT22;20984;43.508;1.504;2024-01-30T14:03:28;14.30;99.90
34766;DHT22;20984;43.508;1.504;2024-01-30T14:05:54;14.30;99.90
34766;DHT22;20984;43.508;1.504;2024-01-30T14:08:20;14.30;99.90
34766;DHT22;20984;43.508;1.504;2024-01-30T14:10:47;14.20;99.90
34766;DHT22;20984;43.508;1.504;2024-01-30T14:13:12;14.20;99.90
34766;DHT22;20984;43.508;1.504;2024-01-30T14:15:38;14.10;99.90
34766;DHT22;20984;43.508;1.504;2024-01-30T14:18:04;14.20;99.90
34766;DHT22;20984;43.508;1.504;2024-01-30T14:20:30;14.10;99.90
34766;DHT22;20984;43.508;1.504;2024-01-30T14:22:56;14.10;99.90
34766;DHT22;20984;43.508;1.504;2024-01-30T14:25:22;14.10;99.90
34766;DHT22;20984;43.508;1.504;2024-01-30T14:27:47;14.10;99.90
34766;DHT22;20984;43.508;1.504;2024-01-30T14:30:13;14.10;99.90
34766;DHT22;20984;43.508;1.504;2024-01-30T14:32:38;14.00;99.90
34766;DHT22;20984;43.508;1.504;2024-01-30T14:35:05;14.00;99.90
34766;DHT22;20984;43.508;1.504;2024-01-30T14:37:31;13.90;99.90
34766;DHT22;20984;43.508;1.504;2024-01-30T14:39:56;13.90;99.90
34766;DHT22;20984;43.508;1.504;2024-01-30T14:42:22;13.90;99.90
34766;DHT22;20984;43.508;1.504;2024-01-30T14:44:47;13.90;99.90
34766;DHT22;20984;43.508;1.504;2024-01-30T14:47:14;13.90;99.90
34766;DHT22;20984;43.508;1.504;2024-01-30T14:49:40;13.80;99.90
34766;DHT22;20984;43.508;1.504;2024-01-30T14:52:05;13.90;99.90
34766;DHT22;20984;43.508;1.504;2024-01-30T14:54:31;13.90;99.90
34766;DHT22;20984;43.508;1.504;2024-01-30T14:56:56;13.80;99.90
34766;DHT22;20984;43.508;1.504;2024-01-30T14:59:22;13.80;99.90
34766;DHT22;20984;43.508;1.504;2024-01-30T15:01:48;13.80;99.90
34766;DHT22;20984;43.508;1.504;2024-01-30T15:04:13;13.70;99.90
34766;DHT22;20984;43.508;1.504;2024-01-30T15:06:39;13.70;99.90
34766;DHT22;20984;43.508;1.504;2024-01-30T15:09:13;13.70;99.90
34766;DHT22;20984;43.508;1.504;2024-01-30T15:11:40;13.60;99.90
34766;DHT22;20984;43.508;1.504;2024-01-30T15:14:06;13.60;99.90
34766;DHT22;20984;43.508;1.504;2024-01-30T15:16:31;13.60;99.90
34766;DHT22;20984;43.508;1.504;2024-01-30T15:18:57;13.50;99.90
34766;DHT22;20984;43.508;1.504;2024-01-30T15:21:22;13.50;99.90
34766;DHT22;20984;43.508;1.504;2024-01-30T15:23:48;13.40;99.90
34766;DHT22;20984;43.508;1.504;2024-01-30T15:26:14;13.40;99.90